Time;durP1;ratioP1;P1;durP2;ratioP2;P2;SDS_P1;SDS_P2;PMS_P1;PMS_P2;Temp;Humidity;BMP_temperature;BMP_pressure;BME280_temperature;BME280_humidity;BME280_pressure;Samples;Min_cycle;Max_cycle;Signal;HPM_P1;HPM_P2
2023/06/16 00:01:09;;;;;;;0.00;0.00;;;;;;;20.90;51.52;102021.41;5079075;28;20049;-79
2023/06/16 00:03:36;;;;;;;0.05;0.05;;;;;;;20.85;50.39;102018.03;5076471;28;20683;-80
2023/06/16 00:06:12;;;;;;;0.00;0.00;;;;;;;20.80;50.76;102010.16;5076506;28;20037;-79
2023/06/16 00:08:42;;;;;;;0.00;0.00;;;;;;;20.76;51.86;102007.66;5079469;28;20092;-78
2023/06/16 00:11:08;;;;;;;0.00;0.00;;;;;;;20.72;52.46;102006.06;5079328;28;20031;-78
2023/06/16 00:13:34;;;;;;;0.08;0.08;;;;;;;20.67;52.53;102000.84;5079628;28;20453;-78
2023/06/16 00:16:00;;;;;;;0.10;0.10;;;;;;;20.61;52.25;102003.78;5078681;28;20043;-78
2023/06/16 00:18:28;;;;;;;0.10;0.10;;;;;;;20.58;51.31;102004.81;5080243;28;20020;-77
2023/06/16 00:20:54;;;;;;;0.10;0.10;;;;;;;20.53;53.23;102006.84;5080876;28;20059;-78
2023/06/16 00:23:22;;;;;;;0.00;0.00;;;;;;;20.48;51.90;102006.16;5084143;28;20084;-78
2023/06/16 00:25:48;;;;;;;0.70;0.70;;;;;;;20.44;52.33;102008.09;5083118;28;20028;-79
2023/06/16 00:28:14;;;;;;;0.28;0.28;;;;;;;20.40;53.48;102006.50;5083444;28;20090;-79
2023/06/16 00:30:41;;;;;;;0.10;0.10;;;;;;;20.36;53.02;102000.38;5082750;28;20028;-79
2023/06/16 00:33:07;;;;;;;0.10;0.10;;;;;;;20.33;53.72;102005.88;5078394;28;20024;-77
2023/06/16 00:35:33;;;;;;;0.00;0.00;;;;;;;20.28;52.54;102005.19;5080613;28;20060;-79
2023/06/16 00:37:59;;;;;;;0.10;0.10;;;;;;;20.26;52.97;102007.09;5075730;28;20033;-79
2023/06/16 00:40:25;;;;;;;0.10;0.10;;;;;;;20.24;52.95;102000.88;5083365;28;20098;-79
2023/06/16 00:42:53;;;;;;;0.10;0.10;;;;;;;20.20;53.42;102008.22;5081921;28;20024;-79
2023/06/16 00:45:19;;;;;;;0.28;0.28;;;;;;;20.17;53.19;102011.00;5081486;28;20032;-78
2023/06/16 00:47:45;;;;;;;0.20;0.20;;;;;;;20.15;53.31;102007.53;5081900;28;20028;-78
2023/06/16 00:50:12;;;;;;;0.10;0.10;;;;;;;20.12;53.36;102004.97;5081322;28;20060;-78
2023/06/16 00:52:39;;;;;;;0.03;0.03;;;;;;;20.12;54.05;102002.25;5079063;28;20096;-78
2023/06/16 00:55:08;;;;;;;0.15;0.15;;;;;;;20.09;53.81;102002.41;5080327;28;20064;-78
2023/06/16 00:57:35;;;;;;;0.10;0.10;;;;;;;20.07;53.27;101998.03;5079829;28;20147;-79
2023/06/16 01:00:01;;;;;;;0.10;0.10;;;;;;;20.03;54.21;101992.75;5080149;28;20044;-78
2023/06/16 01:02:27;;;;;;;0.00;0.00;;;;;;;20.01;53.70;101997.34;5079939;28;20429;-77
2023/06/16 01:04:54;;;;;;;0.28;0.28;;;;;;;19.97;54.11;101998.41;5080900;28;20054;-78
2023/06/16 01:07:25;;;;;;;0.20;0.20;;;;;;;19.96;53.44;102007.44;5077847;28;20034;-79
2023/06/16 01:10:00;;;;;;;0.10;0.10;;;;;;;19.95;54.44;102004.78;5077365;28;20342;-79
2023/06/16 01:12:40;;;;;;;0.10;0.10;;;;;;;19.92;54.95;102005.78;5079332;28;20486;-78
2023/06/16 01:15:11;;;;;;;0.10;0.10;;;;;;;19.90;54.51;101991.53;5080530;28;20075;-78
2023/06/16 01:17:43;;;;;;;0.05;0.05;;;;;;;19.88;54.37;101999.66;5086659;28;20028;-78
2023/06/16 01:20:40;;;;;;;0.10;0.10;;;;;;;19.93;54.45;101990.53;5080159;28;20078;-79
2023/06/16 01:23:33;;;;;;;0.10;0.10;;;;;;;19.87;53.81;101999.72;5075766;28;20035;-78
2023/06/16 01:26:01;;;;;;;0.10;0.10;;;;;;;19.80;53.94;102000.88;5079028;28;20036;-78
2023/06/16 01:28:30;;;;;;;0.10;0.10;;;;;;;19.76;55.61;101989.38;5080166;28;20025;-79
2023/06/16 01:30:58;;;;;;;0.00;0.00;;;;;;;19.75;54.64;101997.50;5078547;28;20043;-78
2023/06/16 01:33:26;;;;;;;0.10;0.10;;;;;;;19.72;54.50;101993.97;5073804;28;20024;-78
2023/06/16 01:35:54;;;;;;;0.10;0.10;;;;;;;19.68;55.15;101995.06;5075867;28;20067;-78
2023/06/16 01:38:22;;;;;;;0.10;0.10;;;;;;;19.64;55.68;101990.75;5079177;28;20039;-78
2023/06/16 01:40:51;;;;;;;0.00;0.00;;;;;;;19.62;55.14;101989.91;5076713;28;20035;-79
2023/06/16 01:43:20;;;;;;;0.20;0.20;;;;;;;19.58;54.90;101991.00;5080200;28;20108;-78
2023/06/16 01:45:49;;;;;;;0.20;0.20;;;;;;;19.55;55.93;101988.41;5078759;28;20039;-79
2023/06/16 01:48:15;;;;;;;0.10;0.10;;;;;;;19.53;55.97;101993.00;5081683;28;20033;-79
2023/06/16 01:50:42;;;;;;;0.10;0.10;;;;;;;19.51;54.83;101990.34;5081302;28;20031;-79
2023/06/16 01:53:08;;;;;;;0.10;0.10;;;;;;;19.49;55.81;101985.97;5077751;28;20476;-79
2023/06/16 01:55:34;;;;;;;0.10;0.10;;;;;;;19.48;56.05;101984.25;5077211;28;20039;-79
2023/06/16 01:58:01;;;;;;;0.20;0.20;;;;;;;19.46;54.90;101984.28;5079064;28;20044;-79
2023/06/16 02:00:35;;;;;;;0.10;0.10;;;;;;;19.47;55.12;101986.03;5078237;28;20032;-79
2023/06/16 02:03:07;;;;;;;0.28;0.28;;;;;;;19.42;55.02;101984.47;5077995;28;20106;-78
2023/06/16 02:05:35;;;;;;;;;;;;;;;19.47;55.81;101983.34;5080515;28;20052;-79
2023/06/16 02:08:04;;;;;;;0.70;0.57;;;;;;;19.34;55.17;101993.69;5076739;28;19916;-78
2023/06/16 02:10:30;;;;;;;0.10;0.10;;;;;;;19.30;55.91;101992.09;5079237;28;20028;-78
2023/06/16 02:12:57;;;;;;;0.10;0.10;;;;;;;19.27;56.23;101991.31;5080265;28;20033;-79
2023/06/16 02:15:24;;;;;;;0.32;0.25;;;;;;;19.24;54.54;101997.69;5076562;28;20572;-79
2023/06/16 02:17:51;;;;;;;0.10;0.10;;;;;;;19.21;55.64;101998.66;5082406;28;20032;-77
2023/06/16 02:20:18;;;;;;;0.00;0.00;;;;;;;19.18;56.12;101998.78;5083869;28;20553;-77
2023/06/16 02:22:44;;;;;;;0.10;0.10;;;;;;;19.17;55.09;101998.84;5079735;28;20083;-79
2023/06/16 02:25:10;;;;;;;0.10;0.10;;;;;;;19.16;55.54;102005.16;5080376;28;20075;-79
2023/06/16 02:27:36;;;;;;;0.08;0.08;;;;;;;19.15;55.40;101998.03;5079710;28;20123;-79
2023/06/16 02:30:03;;;;;;;0.10;0.10;;;;;;;19.14;55.54;101991.78;5078073;28;20033;-79
2023/06/16 02:32:29;;;;;;;0.10;0.10;;;;;;;19.11;55.04;101991.88;5072525;28;20035;-79
2023/06/16 02:34:56;;;;;;;0.10;0.10;;;;;;;19.10;55.57;101995.50;5078656;28;20036;-79
2023/06/16 02:37:27;;;;;;;0.10;0.10;;;;;;;19.08;55.18;101995.56;5075543;28;20116;-79
2023/06/16 02:39:53;;;;;;;0.10;0.10;;;;;;;19.06;56.06;101992.03;5076653;28;20425;-79
2023/06/16 02:42:19;;;;;;;0.00;0.00;;;;;;;19.04;56.21;101995.72;5076810;28;20029;-78
2023/06/16 02:44:45;;;;;;;0.85;0.85;;;;;;;19.01;55.42;101991.34;5076227;28;20059;-79
2023/06/16 02:47:11;;;;;;;0.15;0.15;;;;;;;18.97;55.78;101995.09;5076326;28;20063;-79
2023/06/16 02:49:42;;;;;;;0.60;0.60;;;;;;;18.94;56.12;101992.53;5079183;28;20032;-78
2023/06/16 02:52:11;;;;;;;0.10;0.10;;;;;;;18.90;55.51;101988.16;5073864;28;20506;-78
2023/06/16 02:54:38;;;;;;;0.30;0.30;;;;;;;18.88;56.81;101992.72;5075625;28;20502;-79
2023/06/16 02:57:05;;;;;;;0.10;0.10;;;;;;;18.85;56.62;101985.63;5077061;28;20067;-78
2023/06/16 02:59:31;;;;;;;0.00;0.00;;;;;;;18.83;56.71;101997.34;5078744;28;20138;-79
2023/06/16 03:01:57;;;;;;;0.00;0.00;;;;;;;18.80;56.34;101997.47;5078422;28;20082;-78
2023/06/16 03:04:24;;;;;;;0.10;0.10;;;;;;;18.76;56.43;101996.72;5078628;28;20028;-78
2023/06/16 03:06:51;;;;;;;0.10;0.10;;;;;;;18.74;56.66;102001.25;5078351;28;20020;-79
2023/06/16 03:09:17;;;;;;;0.10;0.10;;;;;;;18.71;56.56;102001.38;5077115;28;20033;-78
2023/06/16 03:11:43;;;;;;;0.00;0.00;;;;;;;18.69;56.15;101998.75;5078502;28;20495;-78
2023/06/16 03:14:09;;;;;;;0.20;0.20;;;;;;;18.68;56.74;102005.06;5078489;28;20036;-78
2023/06/16 03:16:35;;;;;;;0.08;0.08;;;;;;;18.66;56.65;102006.03;5075357;28;20427;-78
2023/06/16 03:19:01;;;;;;;0.10;0.10;;;;;;;18.63;56.55;102004.34;5076996;28;20439;-78
2023/06/16 03:21:28;;;;;;;0.10;0.10;;;;;;;18.63;56.87;102006.13;5077285;28;20392;-78
2023/06/16 03:23:54;;;;;;;0.00;0.00;;;;;;;18.62;55.46;102005.28;5075928;28;20051;-78
2023/06/16 03:26:22;;;;;;;0.10;0.10;;;;;;;18.59;55.67;102005.38;5075348;28;20031;-78
2023/06/16 03:28:48;;;;;;;0.10;0.10;;;;;;;18.56;56.16;102006.34;5076217;28;20029;-78
2023/06/16 03:31:14;;;;;;;0.00;0.00;;;;;;;18.54;55.73;102002.88;5077638;28;20092;-78
2023/06/16 03:33:40;;;;;;;0.00;0.00;;;;;;;18.52;55.89;102003.84;5079508;28;20028;-78
2023/06/16 03:36:09;;;;;;;4.38;2.22;;;;;;;18.52;56.74;102007.41;5078626;28;20032;-78
2023/06/16 03:38:36;;;;;;;0.10;0.10;;;;;;;18.50;56.15;102003.00;5079352;28;20036;-78
2023/06/16 03:41:05;;;;;;;0.10;0.10;;;;;;;18.51;56.40;102000.28;5079578;28;20021;-78
2023/06/16 03:43:31;;;;;;;0.10;0.10;;;;;;;18.48;56.10;102008.44;5087756;28;20032;-78
2023/06/16 03:45:57;;;;;;;0.08;0.08;;;;;;;18.49;56.84;102003.94;5077639;28;20060;-78
2023/06/16 03:48:23;;;;;;;0.00;0.00;;;;;;;18.48;57.21;102004.88;5078741;28;20083;-78
2023/06/16 03:50:50;;;;;;;0.38;0.20;;;;;;;18.46;56.58;102004.06;5087183;28;20395;-78
2023/06/16 03:53:16;;;;;;;0.65;0.65;;;;;;;18.43;56.65;102005.91;5082063;28;20029;-78
2023/06/16 03:55:42;;;;;;;0.10;0.10;;;;;;;18.42;56.91;102000.59;5086606;28;20036;-78
2023/06/16 03:58:08;;;;;;;0.10;0.10;;;;;;;18.41;56.84;102006.91;5083088;28;20040;-78
2023/06/16 04:00:34;;;;;;;0.10;0.10;;;;;;;18.41;57.29;102017.63;5081831;28;20029;-78
2023/06/16 04:03:01;;;;;;;0.00;0.00;;;;;;;18.43;57.19;102010.41;5083694;28;20033;-77
2023/06/16 04:05:28;;;;;;;0.10;0.10;;;;;;;18.46;56.50;102014.78;5090799;28;20458;-78
2023/06/16 04:07:54;;;;;;;0.20;0.20;;;;;;;18.47;56.29;102016.53;5082873;28;20399;-78
2023/06/16 04:10:20;;;;;;;0.25;0.25;;;;;;;18.48;56.58;102019.19;5083257;28;20028;-78
2023/06/16 04:12:46;;;;;;;0.10;0.10;;;;;;;18.52;56.83;102025.31;5084133;28;20058;-78
2023/06/16 04:15:13;;;;;;;0.10;0.10;;;;;;;18.52;55.81;102017.28;5082152;28;20054;-78
2023/06/16 04:17:40;;;;;;;0.30;0.30;;;;;;;18.53;56.00;102027.03;5083364;28;20021;-78
2023/06/16 04:20:10;;;;;;;0.03;0.03;;;;;;;18.54;56.11;102026.13;5083031;28;20115;-78
2023/06/16 04:22:39;;;;;;;0.10;0.10;;;;;;;18.53;55.79;102027.03;5083903;28;20040;-78
2023/06/16 04:25:08;;;;;;;0.10;0.10;;;;;;;18.56;56.26;102021.59;5082944;28;20035;-78
2023/06/16 04:27:36;;;;;;;0.15;0.15;;;;;;;18.59;55.95;102029.53;5081972;28;20434;-78
2023/06/16 04:30:05;;;;;;;0.10;0.10;;;;;;;18.62;56.07;102026.75;5082074;28;20039;-78
2023/06/16 04:32:36;;;;;;;0.10;0.10;;;;;;;18.65;55.67;102026.63;5082817;28;20078;-78
2023/06/16 04:35:04;;;;;;;0.20;0.20;;;;;;;18.71;55.63;102031.78;5079747;28;20434;-78
2023/06/16 04:37:32;;;;;;;0.00;0.00;;;;;;;18.78;55.83;102034.25;5082477;28;20035;-78
2023/06/16 04:39:58;;;;;;;0.00;0.00;;;;;;;18.83;56.32;102029.56;5080715;28;20032;-78
2023/06/16 04:42:24;;;;;;;0.10;0.10;;;;;;;18.90;55.47;102033.81;5073934;28;20021;-78
2023/06/16 04:44:50;;;;;;;0.52;0.52;;;;;;;18.96;56.13;102036.31;5077379;28;20035;-78
2023/06/16 04:47:17;;;;;;;0.00;0.00;;;;;;;19.03;55.16;102036.97;5079096;28;20043;-78
2023/06/16 04:49:43;;;;;;;0.10;0.10;;;;;;;19.10;55.37;102026.88;5079290;28;20029;-77
2023/06/16 04:52:09;;;;;;;0.10;0.10;;;;;;;19.17;54.87;102031.09;5081783;28;20035;-78
2023/06/16 04:54:35;;;;;;;0.00;0.00;;;;;;;19.24;54.85;102029.94;5081757;28;20043;-78
2023/06/16 04:57:02;;;;;;;0.10;0.10;;;;;;;19.32;55.01;102037.69;5081017;28;20044;-78
2023/06/16 04:59:31;;;;;;;0.00;0.00;;;;;;;19.39;54.72;102040.09;5080791;28;20024;-78
2023/06/16 05:01:57;;;;;;;0.03;0.03;;;;;;;19.48;54.80;102033.47;5080916;28;20127;-78
2023/06/16 05:04:23;;;;;;;0.00;0.00;;;;;;;19.56;54.63;102027.78;5082080;28;20024;-78
2023/06/16 05:06:49;;;;;;;0.10;0.10;;;;;;;19.63;54.30;102032.00;5079222;28;20098;-78
2023/06/16 05:09:15;;;;;;;0.35;0.35;;;;;;;19.70;54.07;102035.31;5082168;28;20025;-78
2023/06/16 05:11:42;;;;;;;0.00;0.00;;;;;;;19.76;53.74;102029.69;5078475;28;20035;-78
2023/06/16 05:14:08;;;;;;;0.10;0.10;;;;;;;19.82;54.38;102033.97;5078084;28;20475;-78
2023/06/16 05:16:34;;;;;;;0.45;0.45;;;;;;;19.87;54.41;102034.69;5075166;28;20055;-77
2023/06/16 05:19:01;;;;;;;0.05;0.05;;;;;;;19.91;54.15;102030.94;5073995;28;20028;-78
2023/06/16 05:21:27;;;;;;;0.00;0.00;;;;;;;19.93;53.66;102031.75;5073953;28;20036;-78
2023/06/16 05:23:53;;;;;;;0.10;0.10;;;;;;;19.97;53.40;102036.06;5074996;28;20550;-77
2023/06/16 05:26:21;;;;;;;0.10;0.10;;;;;;;20.00;53.17;102030.56;5071657;28;20187;-77
2023/06/16 05:28:47;;;;;;;0.10;0.10;;;;;;;20.03;53.29;102029.56;5072795;28;20040;-77
2023/06/16 05:31:13;;;;;;;0.63;0.63;;;;;;;20.05;53.30;102027.69;5077456;28;20109;-77
2023/06/16 05:33:39;;;;;;;0.00;0.00;;;;;;;20.08;53.61;102032.94;5085974;28;20025;-77
2023/06/16 05:36:05;;;;;;;0.10;0.10;;;;;;;20.10;53.41;102024.78;5081448;28;20042;-79
2023/06/16 05:38:32;;;;;;;0.10;0.10;;;;;;;20.10;53.64;102031.06;5080491;28;20043;-79
2023/06/16 05:40:58;;;;;;;0.00;0.00;;;;;;;20.14;52.94;102031.81;5079249;28;20088;-79
2023/06/16 05:43:24;;;;;;;0.10;0.10;;;;;;;20.14;52.93;102034.50;5079481;28;20024;-79
2023/06/16 05:45:51;;;;;;;0.10;0.10;;;;;;;20.16;52.97;102038.88;5077470;28;20029;-79
2023/06/16 05:48:17;;;;;;;0.10;0.10;;;;;;;20.19;52.91;102032.50;5079057;28;20037;-79
2023/06/16 05:50:43;;;;;;;0.10;0.10;;;;;;;20.22;52.70;102035.06;5077040;28;20024;-79
2023/06/16 05:53:09;;;;;;;0.35;0.35;;;;;;;20.27;52.85;102035.72;5078573;28;20038;-79
2023/06/16 05:55:35;;;;;;;0.10;0.10;;;;;;;20.31;53.00;102036.47;5073571;28;20063;-78
2023/06/16 05:58:01;;;;;;;0.10;0.10;;;;;;;20.34;52.83;102031.84;5071305;28;20105;-79
2023/06/16 06:00:27;;;;;;;0.10;0.10;;;;;;;20.37;52.84;102041.59;5076791;28;20039;-78
2023/06/16 06:02:53;;;;;;;0.20;0.20;;;;;;;20.39;52.67;102046.91;5074207;28;20025;-79
2023/06/16 06:05:19;;;;;;;0.22;0.22;;;;;;;20.38;53.16;102040.66;5072979;28;20045;-79
2023/06/16 06:07:45;;;;;;;0.10;0.10;;;;;;;20.43;52.91;102045.88;5075634;28;20039;-81
2023/06/16 06:10:11;;;;;;;0.10;0.10;;;;;;;20.47;52.90;102056.44;5072054;28;20369;-80
2023/06/16 06:12:38;;;;;;;0.10;0.10;;;;;;;20.47;53.34;102050.16;5075817;28;20024;-81
2023/06/16 06:15:07;;;;;;;0.10;0.10;;;;;;;20.53;53.61;102055.28;5077656;28;20060;-81
2023/06/16 06:17:33;;;;;;;0.00;0.00;;;;;;;20.55;53.38;102057.91;5077069;28;20031;-81
2023/06/16 06:19:59;;;;;;;0.03;0.03;;;;;;;20.57;53.78;102054.22;5077746;28;20024;-79
2023/06/16 06:22:31;;;;;;;0.05;0.05;;;;;;;20.60;53.77;102051.41;5077569;28;20032;-79
2023/06/16 06:24:57;;;;;;;0.00;0.00;;;;;;;20.63;53.58;102048.56;5077172;28;20074;-81
2023/06/16 06:27:23;;;;;;;0.40;0.28;;;;;;;20.73;53.12;102056.28;5075482;28;20043;-81
2023/06/16 06:29:52;;;;;;;0.10;0.10;;;;;;;20.78;53.30;102062.34;5077833;28;20040;-79
2023/06/16 06:32:18;;;;;;;0.05;0.05;;;;;;;20.83;53.67;102069.25;5078889;28;20021;-80
2023/06/16 06:34:44;;;;;;;0.10;0.10;;;;;;;20.90;53.46;102074.38;5077484;28;20058;-80
2023/06/16 06:37:16;;;;;;;0.10;0.10;;;;;;;20.96;53.27;102066.94;5077025;28;20769;-80
2023/06/16 06:39:42;;;;;;;0.10;0.10;;;;;;;21.02;53.69;102073.84;5077687;28;20024;-80
2023/06/16 06:42:10;;;;;;;0.20;0.20;;;;;;;21.05;53.22;102059.34;5075071;28;20025;-79
2023/06/16 06:44:36;;;;;;;0.10;0.10;;;;;;;21.10;53.11;102063.59;5076821;28;20032;-80
2023/06/16 06:47:02;;;;;;;0.15;0.15;;;;;;;21.13;53.08;102074.28;5076723;28;20036;-80
2023/06/16 06:49:29;;;;;;;0.15;0.15;;;;;;;21.18;53.11;102071.34;5075855;28;20035;-80
2023/06/16 06:51:55;;;;;;;0.10;0.10;;;;;;;21.24;52.84;102062.97;5076654;28;20384;-80
2023/06/16 06:54:21;;;;;;;0.08;0.08;;;;;;;21.34;52.62;102068.81;5075687;28;20051;-79
2023/06/16 06:56:47;;;;;;;0.00;0.00;;;;;;;21.41;52.29;102064.00;5075620;28;20427;-80
2023/06/16 06:59:13;;;;;;;0.10;0.10;;;;;;;21.53;52.47;102070.66;5076996;28;20041;-80
2023/06/16 07:01:40;;;;;;;0.10;0.10;;;;;;;21.55;52.26;102066.94;5073937;28;20021;-80
2023/06/16 07:04:06;;;;;;;1.17;1.08;;;;;;;21.59;51.49;102068.59;5077248;28;20046;-80
2023/06/16 07:06:32;;;;;;;0.10;0.10;;;;;;;21.58;50.95;102061.47;5076654;28;20094;-80
2023/06/16 07:08:58;;;;;;;0.15;0.15;;;;;;;21.70;50.95;102072.63;5077529;28;20103;-80
2023/06/16 07:11:24;;;;;;;0.00;0.00;;;;;;;21.74;51.08;102066.97;5076115;28;20046;-80
2023/06/16 07:13:50;;;;;;;0.32;0.32;;;;;;;21.81;50.98;102064.88;5077240;28;20221;-80
2023/06/16 07:16:17;;;;;;;0.32;0.32;;;;;;;21.88;50.33;102063.63;5076411;28;20032;-80
2023/06/16 07:18:43;;;;;;;0.38;0.38;;;;;;;21.97;50.49;102063.19;5076601;28;20017;-80
2023/06/16 07:21:09;;;;;;;0.13;0.13;;;;;;;22.05;50.10;102067.34;5077189;28;20028;-80
2023/06/16 07:23:35;;;;;;;0.30;0.30;;;;;;;22.13;49.35;102059.72;5076576;28;20020;-80
2023/06/16 07:26:01;;;;;;;0.10;0.10;;;;;;;22.22;49.01;102067.38;5075180;28;20032;-80
2023/06/16 07:28:27;;;;;;;0.65;0.65;;;;;;;22.30;48.34;102065.13;5076474;28;20483;-80
2023/06/16 07:30:55;;;;;;;0.10;0.10;;;;;;;22.41;48.82;102071.88;5080652;28;20193;-81
2023/06/16 07:33:21;;;;;;;0.13;0.13;;;;;;;22.49;48.10;102075.03;5081200;28;20032;-81
2023/06/16 07:35:48;;;;;;;0.05;0.05;;;;;;;22.58;48.25;102071.91;5083130;28;20036;-80
2023/06/16 07:38:15;;;;;;;0.00;0.00;;;;;;;22.61;46.90;102069.03;5079790;28;20032;-80
2023/06/16 07:40:41;;;;;;;0.08;0.08;;;;;;;22.74;46.28;102068.38;5079181;28;20125;-80
2023/06/16 07:43:07;;;;;;;0.10;0.10;;;;;;;22.82;46.32;102071.56;5080869;28;20103;-82
2023/06/16 07:45:34;;;;;;;0.10;0.10;;;;;;;22.89;45.22;102070.31;5080562;28;20032;-81
2023/06/16 07:48:00;;;;;;;0.08;0.08;;;;;;;23.01;45.80;102073.31;5080836;28;20107;-81
2023/06/16 07:50:26;;;;;;;0.28;0.28;;;;;;;23.08;45.41;102066.63;5080239;28;20032;-81
2023/06/16 07:52:52;;;;;;;0.95;0.65;;;;;;;23.17;45.21;102082.38;5080943;28;20582;-81
2023/06/16 07:55:19;;;;;;;0.75;0.75;;;;;;;23.21;43.42;102075.81;5081248;28;20123;-81
2023/06/16 07:57:45;;;;;;;0.03;0.03;;;;;;;23.29;44.89;102066.44;5078891;28;20024;-81
2023/06/16 08:00:13;;;;;;;0.10;0.10;;;;;;;23.40;44.04;102064.00;5081269;28;20043;-81
2023/06/16 08:02:40;;;;;;;0.20;0.20;;;;;;;23.48;43.47;102059.06;5080954;28;20056;-81
2023/06/16 08:05:06;;;;;;;1.02;1.02;;;;;;;23.59;44.03;102056.63;5081202;28;20035;-81
2023/06/16 08:07:32;;;;;;;0.10;0.10;;;;;;;23.67;42.33;102058.91;5080389;28;20035;-81
2023/06/16 08:09:58;;;;;;;0.28;0.28;;;;;;;23.77;42.89;102053.84;5079987;28;20035;-81
2023/06/16 08:12:24;;;;;;;0.13;0.13;;;;;;;23.84;41.44;102054.34;5077485;28;20063;-81
2023/06/16 08:14:50;;;;;;;0.10;0.10;;;;;;;23.97;41.99;102055.44;5078831;28;20082;-81
2023/06/16 08:17:16;;;;;;;0.10;0.10;;;;;;;24.11;42.99;102053.78;5078535;28;20040;-81
2023/06/16 08:19:42;;;;;;;0.13;0.13;;;;;;;24.15;42.77;102056.22;5080579;28;20032;-80
2023/06/16 08:22:08;;;;;;;0.10;0.10;;;;;;;24.27;42.79;102048.34;5078848;28;20036;-80
2023/06/16 08:24:34;;;;;;;0.10;0.10;;;;;;;24.35;40.81;102046.03;5078431;28;20076;-80
2023/06/16 08:27:01;;;;;;;0.20;0.20;;;;;;;24.45;40.99;102049.94;5077945;28;20035;-80
2023/06/16 08:29:30;;;;;;;0.10;0.10;;;;;;;24.54;41.10;102057.50;5079176;28;20032;-80
2023/06/16 08:31:56;;;;;;;0.10;0.10;;;;;;;24.62;41.26;102050.75;5079419;28;20490;-80
2023/06/16 08:34:22;;;;;;;0.10;0.10;;;;;;;24.73;40.79;102047.44;5079340;28;20020;-80
2023/06/16 08:36:49;;;;;;;0.10;0.10;;;;;;;24.73;39.56;102048.31;5078968;28;20058;-80
2023/06/16 08:39:15;;;;;;;0.00;0.00;;;;;;;24.83;39.72;102051.31;5079560;28;20028;-80
2023/06/16 08:41:42;;;;;;;0.20;0.20;;;;;;;24.86;37.21;102046.59;5086388;28;20033;-79
2023/06/16 08:44:13;;;;;;;0.10;0.10;;;;;;;24.97;39.25;102050.47;5094816;28;20048;-78
2023/06/16 08:46:39;;;;;;;0.40;0.40;;;;;;;25.06;38.95;102043.59;5088557;28;20424;-78
2023/06/16 08:49:05;;;;;;;0.13;0.13;;;;;;;25.14;39.71;102042.16;5078904;28;20036;-80
2023/06/16 08:51:33;;;;;;;0.10;0.10;;;;;;;25.20;37.96;102044.47;5078876;28;20020;-79
2023/06/16 08:54:06;;;;;;;0.10;0.10;;;;;;;25.33;37.90;102041.00;5076949;28;20028;-79
2023/06/16 08:56:33;;;;;;;1.08;0.73;;;;;;;25.36;36.00;102038.09;5073829;28;20036;-80
2023/06/16 08:59:03;;;;;;;0.10;0.10;;;;;;;25.46;38.44;102041.97;5077294;28;20021;-79
2023/06/16 09:01:30;;;;;;;0.10;0.10;;;;;;;25.49;37.37;102041.78;5074691;28;20051;-79
2023/06/16 09:03:56;;;;;;;0.90;0.47;;;;;;;25.56;37.55;102041.38;5078657;28;20533;-79
2023/06/16 09:06:25;;;;;;;0.10;0.10;;;;;;;25.61;36.59;102034.69;5074758;28;20073;-79
2023/06/16 09:08:52;;;;;;;0.10;0.10;;;;;;;25.67;34.34;102038.84;5076511;28;20024;-79
2023/06/16 09:11:26;;;;;;;1.90;0.75;;;;;;;25.82;35.07;102034.22;5076336;28;20032;-79
2023/06/16 09:13:52;;;;;;;0.10;0.10;;;;;;;25.86;35.79;102043.06;5077445;28;20016;-79
2023/06/16 09:16:21;;;;;;;0.20;0.20;;;;;;;25.88;33.00;102041.13;5076024;28;20040;-79
2023/06/16 09:18:49;;;;;;;1.55;0.30;;;;;;;25.98;34.26;102042.25;5077187;28;20414;-79
2023/06/16 09:21:23;;;;;;;0.17;0.17;;;;;;;26.07;35.71;102046.22;5078606;28;20487;-79
2023/06/16 09:23:57;;;;;;;0.50;0.50;;;;;;;26.13;34.59;102049.41;5078073;28;20020;-79
2023/06/16 09:26:28;;;;;;;0.47;0.47;;;;;;;26.19;34.30;102055.41;5074205;28;20566;-80
2023/06/16 09:28:54;;;;;;;0.10;0.10;;;;;;;26.22;34.67;102039.78;5075973;28;20028;-79
2023/06/16 09:31:23;;;;;;;0.30;0.30;;;;;;;26.30;34.16;102044.69;5077303;28;20028;-79
2023/06/16 09:33:50;;;;;;;0.10;0.10;;;;;;;26.38;35.36;102036.88;5076109;28;20024;-79
2023/06/16 09:36:26;;;;;;;0.73;0.73;;;;;;;26.53;35.21;102042.22;5075046;28;20028;-79
2023/06/16 09:38:52;;;;;;;0.00;0.00;;;;;;;26.57;35.08;102038.34;5075709;28;20123;-79
2023/06/16 09:41:18;;;;;;;0.10;0.10;;;;;;;26.68;35.45;102051.16;5075438;28;20547;-79
2023/06/16 09:43:45;;;;;;;0.10;0.10;;;;;;;26.74;34.15;102039.91;5076758;28;20012;-80
2023/06/16 09:46:12;;;;;;;0.10;0.10;;;;;;;26.77;33.88;102034.25;5073981;28;20127;-79
2023/06/16 09:48:53;;;;;;;0.10;0.10;;;;;;;26.88;35.46;102041.63;5075414;28;20035;-80
2023/06/16 09:51:23;;;;;;;0.73;0.73;;;;;;;26.97;34.58;102035.56;5075916;28;20503;-80
2023/06/16 09:53:49;;;;;;;0.10;0.10;;;;;;;27.06;34.01;102028.59;5075862;28;20392;-80
2023/06/16 09:56:17;;;;;;;0.10;0.10;;;;;;;27.12;30.87;102033.59;5075552;28;20550;-79
2023/06/16 09:58:46;;;;;;;0.22;0.22;;;;;;;27.27;32.36;102028.91;5076664;28;20076;-79
2023/06/16 10:01:14;;;;;;;0.10;0.10;;;;;;;27.32;31.21;102031.28;5076860;28;20439;-85
2023/06/16 10:03:43;;;;;;;0.52;0.52;;;;;;;27.34;30.55;102027.47;5075043;28;20252;-87
2023/06/16 10:06:17;;;;;;;0.43;0.30;;;;;;;27.47;32.12;102030.19;5073593;28;20111;-87
2023/06/16 10:08:46;;;;;;;0.10;0.10;;;;;;;27.46;30.61;102020.28;5077175;28;20103;-87
2023/06/16 10:11:16;;;;;;;0.40;0.40;;;;;;;27.51;30.17;102025.41;5076251;28;20063;-86
2023/06/16 10:13:50;;;;;;;0.10;0.10;;;;;;;27.54;30.32;102022.44;5075418;28;20032;-87
2023/06/16 10:16:17;;;;;;;0.45;0.45;;;;;;;27.54;28.22;102017.88;5075954;28;20119;-80
2023/06/16 10:18:44;;;;;;;0.10;0.10;;;;;;;27.57;29.08;102022.22;5079141;28;20090;-80
2023/06/16 10:21:11;;;;;;;0.20;0.20;;;;;;;27.63;29.94;102019.06;5080513;28;20051;-79
2023/06/16 10:23:37;;;;;;;0.32;0.25;;;;;;;27.66;27.57;102020.69;5080020;28;20016;-80
2023/06/16 10:26:05;;;;;;;0.28;0.28;;;;;;;27.78;29.38;102019.75;5073701;28;20452;-80
2023/06/16 10:28:35;;;;;;;0.10;0.10;;;;;;;27.87;30.07;102015.47;5077144;28;20028;-80
2023/06/16 10:31:03;;;;;;;0.40;0.40;;;;;;;28.01;29.98;102003.53;5075438;28;20070;-80
2023/06/16 10:33:44;;;;;;;0.10;0.10;;;;;;;28.11;28.74;102014.63;5075809;28;20107;-80
2023/06/16 10:36:11;;;;;;;0.10;0.10;;;;;;;28.19;29.44;102004.88;5076631;28;20119;-80
2023/06/16 10:38:38;;;;;;;0.08;0.08;;;;;;;28.22;29.28;102003.78;5076522;28;20040;-80
2023/06/16 10:41:07;;;;;;;0.20;0.20;;;;;;;28.34;29.52;102005.56;5074111;28;20028;-79
2023/06/16 10:43:33;;;;;;;0.03;0.03;;;;;;;28.37;28.67;102005.28;5072021;28;20049;-79
2023/06/16 10:46:16;;;;;;;0.10;0.10;;;;;;;28.51;27.44;102006.97;5073060;28;20024;-79
2023/06/16 10:51:48;;;;;;;0.20;0.20;;;;;;;28.62;28.72;102002.53;5072815;28;20733;-81
2023/06/16 10:57:10;;;;;;;0.00;0.00;;;;;;;28.66;28.03;102004.91;5102498;27;20360;-79
2023/06/16 11:00:10;;;;;;;0.10;0.10;;;;;;;28.84;28.26;102001.72;5100371;28;20024;-79
2023/06/16 11:02:38;;;;;;;0.80;0.52;;;;;;;28.88;25.01;101992.31;5093840;28;20024;-79
2023/06/16 11:10:24;;;;;;;0.30;0.30;;;;;;;29.00;25.16;101996.78;5110740;27;20363;-81
2023/06/16 11:12:51;;;;;;;0.90;0.70;;;;;;;29.05;26.45;101997.25;5114912;28;20058;-81
2023/06/16 11:15:19;;;;;;;0.10;0.10;;;;;;;29.12;25.66;101989.44;5110134;28;20028;-79
2023/06/16 11:17:47;;;;;;;0.10;0.10;;;;;;;29.20;26.82;101986.09;5112871;28;20030;-81
2023/06/16 11:20:14;;;;;;;0.17;0.15;;;;;;;29.26;26.98;101982.00;5110156;28;20092;-80
2023/06/16 11:22:40;;;;;;;0.22;0.22;;;;;;;29.24;25.64;101984.84;5113867;27;20024;-81
2023/06/16 11:25:07;;;;;;;0.57;0.57;;;;;;;29.34;25.64;101982.28;5111178;28;20070;-81
2023/06/16 11:27:33;;;;;;;0.10;0.10;;;;;;;29.45;26.00;101984.13;5113542;28;20418;-81
2023/06/16 11:30:05;;;;;;;0.10;0.10;;;;;;;29.48;26.14;101983.84;5113232;28;20394;-78
2023/06/16 11:32:34;;;;;;;0.20;0.20;;;;;;;29.67;27.70;101986.78;5114438;28;20658;-81
2023/06/16 11:35:01;;;;;;;0.10;0.10;;;;;;;29.81;27.01;101984.78;5106285;28;20031;-81
2023/06/16 11:37:48;;;;;;;0.40;0.40;;;;;;;30.02;26.80;101976.66;5108631;28;20020;-81